Time;durP1;ratioP1;P1;durP2;ratioP2;P2;SDS_P1;SDS_P2;PMS_P1;PMS_P2;Temp;Humidity;BMP_temperature;BMP_pressure;BME280_temperature;BME280_humidity;BME280_pressure;Samples;Min_cycle;Max_cycle;Signal;HPM_P1;HPM_P2
2023/09/16 00:00:46;;;;;;;46.13;9.17;;;28.50;51.70;;;;;;5068369;28;20193;-74
2023/09/16 00:03:13;;;;;;;27.73;7.40;;;28.40;51.60;;;;;;5070566;28;20714;-75
2023/09/16 00:05:40;;;;;;;42.70;8.17;;;28.50;51.70;;;;;;5064643;28;20297;-75
2023/09/16 00:08:09;;;;;;;28.20;7.03;;;28.50;51.80;;;;;;5070270;28;20210;-75
2023/09/16 00:10:36;;;;;;;35.83;7.77;;;28.50;51.70;;;;;;5067162;28;20241;-72
2023/09/16 00:13:03;;;;;;;36.67;7.37;;;28.40;51.70;;;;;;5067961;28;20287;-72
2023/09/16 00:15:30;;;;;;;33.23;7.33;;;28.40;51.70;;;;;;5068279;28;20205;-71
2023/09/16 00:17:57;;;;;;;24.77;6.53;;;28.50;51.70;;;;;;5068100;28;20292;-72
2023/09/16 00:20:26;;;;;;;27.87;7.43;;;28.40;52.30;;;;;;5063756;28;20303;-72
2023/09/16 00:22:53;;;;;;;26.20;6.87;;;28.40;51.70;;;;;;5080490;28;20753;-72
2023/09/16 00:25:21;;;;;;;20.87;6.13;;;28.40;51.70;;;;;;5070236;28;20276;-72
2023/09/16 00:27:48;;;;;;;19.80;6.17;;;28.40;51.70;;;;;;5073778;28;20665;-72
2023/09/16 00:30:15;;;;;;;29.57;7.03;;;28.40;51.70;;;;;;5084568;28;20217;-71
2023/09/16 00:32:43;;;;;;;20.27;5.70;;;28.40;51.70;;;;;;5088156;28;20245;-73
2023/09/16 00:35:10;;;;;;;24.70;6.87;;;28.40;51.80;;;;;;5067541;28;20245;-71
2023/09/16 00:37:37;;;;;;;24.83;6.73;;;28.40;51.80;;;;;;5061532;28;20211;-71
2023/09/16 00:40:05;;;;;;;26.50;6.73;;;28.40;51.80;;;;;;5048234;28;20283;-71
2023/09/16 00:42:37;;;;;;;25.53;7.00;;;28.40;51.80;;;;;;5065172;28;20597;-71
2023/09/16 00:45:06;;;;;;;26.33;6.43;;;28.40;51.80;;;;;;5066945;28;20314;-73
2023/09/16 00:47:34;;;;;;;17.80;5.80;;;28.40;51.80;;;;;;5068052;28;20199;-73
2023/09/16 00:50:04;;;;;;;32.40;7.07;;;28.40;51.80;;;;;;5069379;28;20206;-71
2023/09/16 00:52:31;;;;;;;25.20;6.60;;;28.40;51.80;;;;;;5088201;28;20211;-72
2023/09/16 00:54:58;;;;;;;27.43;6.80;;;28.40;51.80;;;;;;5067045;28;20592;-73
2023/09/16 00:57:25;;;;;;;23.83;6.23;;;28.40;52.40;;;;;;5048606;28;20654;-71
2023/09/16 00:59:54;;;;;;;21.40;6.10;;;28.40;51.80;;;;;;5051688;28;20199;-72
2023/09/16 01:02:20;;;;;;;39.67;7.43;;;28.40;51.80;;;;;;5070396;28;20203;-71
2023/09/16 01:04:47;;;;;;;23.07;5.93;;;28.40;51.80;;;;;;5068479;28;20703;-71
2023/09/16 01:07:15;;;;;;;29.03;6.80;;;28.40;51.80;;;;;;5063836;28;20306;-71
2023/09/16 01:09:42;;;;;;;35.87;7.80;;;28.40;51.90;;;;;;5059514;28;20202;-71
2023/09/16 01:12:10;;;;;;;19.00;5.50;;;28.40;51.90;;;;;;5068990;28;20220;-71
2023/09/16 01:14:38;;;;;;;38.83;7.63;;;28.40;51.90;;;;;;5055279;28;20218;-71
2023/09/16 01:17:13;;;;;;;25.60;6.20;;;28.40;51.90;;;;;;5075762;28;20205;-71
2023/09/16 01:19:48;;;;;;;18.73;5.73;;;28.30;51.80;;;;;;5073441;28;20209;-72
2023/09/16 01:22:15;;;;;;;26.73;6.30;;;28.40;51.90;;;;;;5085406;28;20400;-71
2023/09/16 01:24:42;;;;;;;25.00;6.50;;;28.40;52.50;;;;;;5085682;28;20207;-71
2023/09/16 01:27:11;;;;;;;23.73;5.97;;;28.40;51.90;;;;;;5071594;28;20203;-71
2023/09/16 01:29:37;;;;;;;23.80;7.00;;;28.40;51.90;;;;;;5055580;28;20299;-71
2023/09/16 01:32:07;;;;;;;25.87;6.17;;;28.30;51.90;;;;;;5086470;28;20281;-70
2023/09/16 01:34:41;;;;;;;23.20;6.23;;;28.40;51.90;;;;;;5091227;28;20637;-71
2023/09/16 01:37:13;;;;;;;17.30;5.50;;;28.40;51.90;;;;;;5077475;28;20200;-71
2023/09/16 01:39:43;;;;;;;20.67;5.70;;;28.40;51.90;;;;;;5087025;28;20757;-71
2023/09/16 01:42:12;;;;;;;22.40;6.53;;;28.40;51.90;;;;;;5091044;28;20600;-71
2023/09/16 01:44:39;;;;;;;26.07;6.60;;;28.40;51.90;;;;;;5089930;28;20325;-72
2023/09/16 01:47:07;;;;;;;30.07;6.70;;;28.40;52.00;;;;;;5090963;28;20734;-72
2023/09/16 01:49:34;;;;;;;28.53;6.60;;;28.40;52.00;;;;;;5091012;28;20206;-71
2023/09/16 01:52:01;;;;;;;31.90;7.07;;;28.40;52.00;;;;;;5091165;28;20293;-72
2023/09/16 01:54:28;;;;;;;29.00;6.93;;;28.30;51.90;;;;;;5081819;28;20298;-71
2023/09/16 01:56:55;;;;;;;27.40;6.23;;;28.30;51.90;;;;;;5058330;28;20287;-72
2023/09/16 01:59:23;;;;;;;33.77;7.17;;;28.30;51.90;;;;;;5050812;28;20303;-75
2023/09/16 02:01:50;;;;;;;26.20;6.77;;;28.30;51.90;;;;;;5060839;28;20247;-72
2023/09/16 02:04:17;;;;;;;41.93;8.20;;;28.30;51.90;;;;;;5073363;28;20317;-71
2023/09/16 02:06:46;;;;;;;21.77;6.03;;;28.30;52.00;;;;;;5080008;28;20298;-72
2023/09/16 02:09:13;;;;;;;29.23;6.53;;;28.30;52.60;;;;;;5069598;28;20231;-71
2023/09/16 02:11:40;;;;;;;23.67;6.07;;;28.30;51.90;;;;;;5069783;28;20290;-72
2023/09/16 02:14:11;;;;;;;29.00;7.17;;;28.30;52.00;;;;;;5062675;28;20199;-72
2023/09/16 02:16:40;;;;;;;25.97;6.07;;;28.30;52.00;;;;;;5070567;28;20285;-71
2023/09/16 02:19:07;;;;;;;26.27;6.37;;;28.30;52.00;;;;;;5060657;28;20247;-72
2023/09/16 02:21:33;;;;;;;21.43;5.80;;;28.30;52.00;;;;;;5053180;28;20242;-73
2023/09/16 02:24:00;;;;;;;29.63;7.07;;;28.30;52.00;;;;;;5069631;28;20224;-72
2023/09/16 02:26:26;;;;;;;38.13;7.73;;;28.30;52.00;;;;;;5067374;28;20214;-72
2023/09/16 02:28:53;;;;;;;26.87;6.53;;;28.30;52.00;;;;;;5069236;28;20282;-74
2023/09/16 02:31:20;;;;;;;21.87;5.80;;;28.30;52.00;;;;;;5062046;28;20200;-72
2023/09/16 02:33:48;;;;;;;37.73;7.20;;;28.30;52.00;;;;;;5058774;28;20215;-74
2023/09/16 02:36:15;;;;;;;37.87;7.70;;;28.20;52.00;;;;;;5071432;28;20201;-73
2023/09/16 02:38:42;;;;;;;22.23;5.93;;;28.20;52.00;;;;;;5069011;28;20279;-74
2023/09/16 02:41:09;;;;;;;31.50;6.87;;;28.30;52.00;;;;;;5049671;28;20276;-74
2023/09/16 02:43:36;;;;;;;21.67;5.80;;;28.30;52.00;;;;;;5064010;28;20199;-74
2023/09/16 02:46:03;;;;;;;22.70;6.40;;;28.30;52.00;;;;;;5069766;28;20227;-73
2023/09/16 02:48:30;;;;;;;32.00;6.63;;;28.20;52.00;;;;;;5058816;28;20202;-75
2023/09/16 02:50:58;;;;;;;27.17;6.13;;;28.20;52.00;;;;;;5069670;28;20221;-73
2023/09/16 02:53:25;;;;;;;36.20;7.53;;;28.20;52.00;;;;;;5056013;28;20199;-74
2023/09/16 02:55:54;;;;;;;30.30;6.90;;;28.20;52.00;;;;;;5059356;28;20715;-73
2023/09/16 02:58:22;;;;;;;21.10;5.77;;;28.20;52.00;;;;;;5064070;28;20204;-72
2023/09/16 03:00:48;;;;;;;24.90;6.30;;;28.20;52.00;;;;;;5049267;28;20204;-74
2023/09/16 03:03:16;;;;;;;20.03;5.50;;;28.20;52.10;;;;;;5059435;28;20311;-74
2023/09/16 03:05:45;;;;;;;23.27;5.80;;;28.20;52.00;;;;;;5076597;28;20244;-75
2023/09/16 03:08:14;;;;;;;26.87;6.20;;;28.20;52.10;;;;;;5073400;28;20206;-72
2023/09/16 03:10:40;;;;;;;25.13;6.07;;;28.20;52.10;;;;;;5059592;28;20816;-71
2023/09/16 03:13:07;;;;;;;29.63;6.73;;;28.20;52.10;;;;;;5055826;28;20200;-72
2023/09/16 03:15:36;;;;;;;49.30;8.80;;;28.20;52.10;;;;;;5060801;28;20299;-72
2023/09/16 03:18:03;;;;;;;21.10;6.00;;;28.20;52.10;;;;;;5067537;28;20294;-71
2023/09/16 03:20:30;;;;;;;23.73;5.97;;;28.20;52.10;;;;;;5084580;28;20199;-72
2023/09/16 03:22:57;;;;;;;21.60;6.00;;;28.20;52.10;;;;;;5076859;28;20730;-71
2023/09/16 03:25:25;;;;;;;27.83;7.60;;;28.20;52.70;;;;;;5065860;28;20235;-72
2023/09/16 03:27:53;;;;;;;22.70;5.97;;;28.10;52.00;;;;;;5064172;28;20196;-72
2023/09/16 03:30:20;;;;;;;20.97;5.60;;;28.10;52.00;;;;;;5050839;28;20215;-72
2023/09/16 03:32:47;;;;;;;22.63;6.00;;;28.20;52.10;;;;;;5057053;28;20203;-71
2023/09/16 03:35:14;;;;;;;27.10;6.33;;;28.20;52.10;;;;;;5067963;28;20207;-71
2023/09/16 03:37:41;;;;;;;26.07;6.40;;;28.20;52.10;;;;;;5060911;28;20200;-71
2023/09/16 03:40:08;;;;;;;24.83;6.30;;;28.10;52.10;;;;;;5078158;28;20325;-72
2023/09/16 03:42:36;;;;;;;22.70;5.87;;;28.10;52.10;;;;;;5085361;28;20295;-70
2023/09/16 03:45:04;;;;;;;38.97;7.73;;;28.10;52.10;;;;;;5066096;28;20231;-71
2023/09/16 03:47:31;;;;;;;22.90;6.17;;;28.10;52.10;;;;;;5053036;28;20278;-71
2023/09/16 03:49:57;;;;;;;24.47;6.47;;;28.10;52.10;;;;;;5068367;28;20245;-71
2023/09/16 03:52:24;;;;;;;32.67;7.17;;;28.10;52.10;;;;;;5059199;28;20200;-71
2023/09/16 03:54:51;;;;;;;22.90;6.03;;;28.10;52.70;;;;;;5066314;28;20239;-71
2023/09/16 03:57:18;;;;;;;15.63;5.27;;;28.10;52.10;;;;;;5064671;28;20204;-71
2023/09/16 03:59:47;;;;;;;26.57;6.40;;;28.10;52.20;;;;;;5053254;28;20569;-71
2023/09/16 04:02:14;;;;;;;22.10;5.77;;;28.10;52.20;;;;;;5052964;28;20299;-71
2023/09/16 04:04:40;;;;;;;18.67;5.47;;;28.00;52.10;;;;;;5057598;28;20270;-71
2023/09/16 04:07:07;;;;;;;32.80;6.97;;;28.00;52.10;;;;;;5056329;28;20274;-71
2023/09/16 04:09:34;;;;;;;28.67;6.17;;;28.00;52.10;;;;;;5079491;28;20282;-71
2023/09/16 04:12:02;;;;;;;22.60;5.67;;;28.00;52.10;;;;;;5068748;28;20276;-71
2023/09/16 04:14:29;;;;;;;18.60;5.27;;;28.00;52.10;;;;;;5068541;28;20422;-72
2023/09/16 04:16:57;;;;;;;35.73;7.30;;;28.00;52.10;;;;;;5068367;28;20202;-71
2023/09/16 04:19:24;;;;;;;22.77;6.10;;;28.00;52.10;;;;;;5069056;28;20306;-71
2023/09/16 04:21:51;;;;;;;36.27;6.70;;;28.00;52.10;;;;;;5068159;28;20188;-71
2023/09/16 04:24:20;;;;;;;22.57;5.87;;;28.00;52.20;;;;;;5076728;28;20242;-71
2023/09/16 04:26:47;;;;;;;17.83;5.20;;;28.00;52.10;;;;;;5088929;28;20667;-71
2023/09/16 04:29:14;;;;;;;24.03;5.90;;;28.00;52.20;;;;;;5089047;28;20195;-71
2023/09/16 04:31:41;;;;;;;27.13;6.67;;;27.90;52.20;;;;;;5088128;28;20190;-70
2023/09/16 04:34:09;;;;;;;30.20;6.90;;;28.00;52.20;;;;;;5088597;28;20290;-71
2023/09/16 04:36:36;;;;;;;25.03;6.03;;;28.00;52.20;;;;;;5071888;28;20297;-71
2023/09/16 04:39:03;;;;;;;22.73;5.73;;;27.90;52.70;;;;;;5072465;28;20282;-71
2023/09/16 04:41:31;;;;;;;27.37;6.10;;;27.90;52.20;;;;;;5072423;28;20904;-72
2023/09/16 04:43:58;;;;;;;39.80;7.43;;;27.90;52.20;;;;;;5069635;28;20614;-71
2023/09/16 04:46:26;;;;;;;28.23;6.40;;;27.90;52.20;;;;;;5075740;28;20667;-71
2023/09/16 04:48:54;;;;;;;26.97;6.80;;;27.90;52.20;;;;;;5054019;28;20291;-71
2023/09/16 04:51:22;;;;;;;34.03;6.77;;;27.90;52.20;;;;;;5051873;28;20211;-71
2023/09/16 04:53:50;;;;;;;34.77;6.73;;;27.90;52.20;;;;;;5059499;28;20205;-72
2023/09/16 04:56:17;;;;;;;24.23;5.70;;;27.90;52.20;;;;;;5082561;28;20707;-72
2023/09/16 04:58:44;;;;;;;30.57;6.50;;;27.90;52.20;;;;;;5055146;28;20208;-71
2023/09/16 05:01:13;;;;;;;24.23;6.00;;;27.90;52.20;;;;;;5063999;28;20286;-71
2023/09/16 05:03:40;;;;;;;25.60;6.47;;;27.90;52.20;;;;;;5078551;28;20218;-71
2023/09/16 05:06:07;;;;;;;26.07;6.23;;;27.90;52.20;;;;;;5079082;28;20249;-71
2023/09/16 05:08:35;;;;;;;23.40;6.23;;;27.90;52.30;;;;;;5068425;28;20265;-71
2023/09/16 05:11:02;;;;;;;34.57;7.07;;;27.90;52.30;;;;;;5069523;28;20199;-74
2023/09/16 05:13:29;;;;;;;31.13;6.60;;;27.90;52.30;;;;;;5063654;28;20235;-71
2023/09/16 05:15:56;;;;;;;28.63;6.23;;;27.90;52.30;;;;;;5059585;28;20439;-74
2023/09/16 05:18:23;;;;;;;31.83;6.43;;;27.90;52.40;;;;;;5091585;28;20207;-74
2023/09/16 05:20:51;;;;;;;29.53;6.30;;;27.90;52.30;;;;;;5075244;28;20203;-72
2023/09/16 05:23:18;;;;;;;28.07;6.40;;;27.80;52.30;;;;;;5071536;28;20195;-74
2023/09/16 05:25:48;;;;;;;20.10;5.37;;;27.80;52.30;;;;;;5071897;28;20401;-73
2023/09/16 05:28:15;;;;;;;20.83;5.70;;;27.90;52.40;;;;;;5071825;28;20238;-73
2023/09/16 05:30:43;;;;;;;30.80;7.10;;;27.80;52.30;;;;;;5066424;28;21388;-73
2023/09/16 05:33:10;;;;;;;21.47;5.93;;;27.80;52.50;;;;;;5062730;28;20745;-73
2023/09/16 05:35:39;;;;;;;24.90;5.73;;;27.80;52.40;;;;;;5079956;28;20314;-70
2023/09/16 05:38:06;;;;;;;26.90;5.93;;;27.80;52.50;;;;;;5058439;28;20285;-71
2023/09/16 05:40:33;;;;;;;24.87;6.87;;;27.80;52.40;;;;;;5068193;28;20213;-73
2023/09/16 05:43:02;;;;;;;24.07;5.97;;;27.80;52.40;;;;;;5062155;28;20290;-74
2023/09/16 05:45:28;;;;;;;30.53;6.70;;;27.80;52.40;;;;;;5065665;28;20306;-74
2023/09/16 05:47:56;;;;;;;23.60;5.93;;;27.80;52.40;;;;;;5055337;28;20200;-73
2023/09/16 05:50:22;;;;;;;26.53;6.37;;;27.80;52.50;;;;;;5069809;28;20569;-71
2023/09/16 05:52:50;;;;;;;25.53;5.83;;;27.80;52.40;;;;;;5063249;28;20187;-71
2023/09/16 05:55:17;;;;;;;27.83;6.23;;;27.80;52.40;;;;;;5070427;28;20290;-71
2023/09/16 05:57:44;;;;;;;22.90;5.80;;;27.80;52.40;;;;;;5069445;28;20286;-71
2023/09/16 06:00:13;;;;;;;25.57;5.80;;;27.80;52.50;;;;;;5068867;28;20286;-71
2023/09/16 06:02:40;;;;;;;37.43;7.13;;;27.80;52.50;;;;;;5064962;28;20199;-71
2023/09/16 06:05:08;;;;;;;44.10;8.43;;;27.80;52.40;;;;;;5068630;28;20215;-71
2023/09/16 06:07:36;;;;;;;27.90;6.10;;;27.80;52.50;;;;;;5061861;28;20203;-71
2023/09/16 06:10:04;;;;;;;15.13;4.83;;;27.80;52.50;;;;;;5054235;28;20204;-71
2023/09/16 06:12:30;;;;;;;25.57;6.13;;;27.80;52.50;;;;;;5083654;28;20206;-71
2023/09/16 06:14:57;;;;;;;22.73;6.03;;;27.80;52.50;;;;;;5065188;28;20208;-71
2023/09/16 06:17:26;;;;;;;24.47;5.87;;;27.80;52.50;;;;;;5071283;28;20207;-71
2023/09/16 06:19:54;;;;;;;24.53;6.33;;;27.80;52.50;;;;;;5069855;28;20211;-71
2023/09/16 06:22:21;;;;;;;27.57;6.50;;;27.80;52.50;;;;;;5070257;28;20665;-71
2023/09/16 06:24:48;;;;;;;27.63;6.17;;;27.80;53.10;;;;;;5070606;28;20187;-73
2023/09/16 06:27:15;;;;;;;19.27;5.67;;;27.80;52.40;;;;;;5074660;28;20945;-71
2023/09/16 06:29:43;;;;;;;25.77;6.80;;;27.80;52.50;;;;;;5090169;28;20627;-71
2023/09/16 06:32:10;;;;;;;26.70;6.10;;;27.80;52.50;;;;;;5090354;28;20658;-71
2023/09/16 06:34:38;;;;;;;26.57;6.10;;;27.80;52.50;;;;;;5087211;28;20257;-72
2023/09/16 06:37:06;;;;;;;23.30;5.63;;;27.80;52.50;;;;;;5090370;28;20206;-71
2023/09/16 06:39:33;;;;;;;25.23;6.00;;;27.80;52.50;;;;;;5090239;28;20199;-72
2023/09/16 06:42:00;;;;;;;22.00;5.93;;;27.80;52.50;;;;;;5088936;28;20198;-71
2023/09/16 06:44:27;;;;;;;24.10;5.70;;;27.70;52.40;;;;;;5090418;28;20207;-72
2023/09/16 06:46:54;;;;;;;50.87;8.33;;;27.70;52.40;;;;;;5089736;28;20234;-72
2023/09/16 06:49:21;;;;;;;29.20;6.80;;;27.70;53.00;;;;;;5082288;28;20257;-71
2023/09/16 06:51:49;;;;;;;34.90;6.80;;;27.70;52.40;;;;;;5070578;28;20286;-71
2023/09/16 06:54:16;;;;;;;18.63;5.50;;;27.70;53.00;;;;;;5069887;28;20344;-71
2023/09/16 06:56:43;;;;;;;60.23;8.90;;;27.70;52.40;;;;;;5066266;28;20295;-72
2023/09/16 06:59:10;;;;;;;21.97;6.10;;;27.70;52.40;;;;;;5085351;28;20417;-71
2023/09/16 07:01:37;;;;;;;24.13;6.33;;;27.70;52.40;;;;;;5089618;28;20278;-71
2023/09/16 07:04:04;;;;;;;28.60;6.47;;;27.70;52.40;;;;;;5089916;28;20289;-72
2023/09/16 07:06:31;;;;;;;15.47;5.23;;;27.70;52.40;;;;;;5089364;28;20424;-71
2023/09/16 07:09:00;;;;;;;19.57;5.93;;;27.70;52.40;;;;;;5089210;28;20301;-72
2023/09/16 07:11:26;;;;;;;23.87;6.40;;;27.70;52.40;;;;;;5089560;28;20210;-72
2023/09/16 07:13:53;;;;;;;22.97;5.97;;;27.70;52.40;;;;;;5089647;28;20203;-71
2023/09/16 07:16:22;;;;;;;24.43;5.97;;;27.70;52.40;;;;;;5071754;28;20241;-72
2023/09/16 07:18:49;;;;;;;28.00;6.27;;;27.70;52.40;;;;;;5077741;28;20231;-73
2023/09/16 07:21:22;;;;;;;29.73;5.93;;;27.70;52.40;;;;;;5079715;28;20245;-72
2023/09/16 07:23:49;;;;;;;26.33;6.20;;;27.70;52.40;;;;;;5069230;28;20211;-71
2023/09/16 07:26:17;;;;;;;27.50;6.53;;;27.70;52.40;;;;;;5066827;28;20237;-72
2023/09/16 07:28:44;;;;;;;21.83;6.40;;;27.70;52.40;;;;;;5069234;28;20614;-71
2023/09/16 07:31:11;;;;;;;22.03;6.07;;;27.70;52.40;;;;;;5068953;28;20234;-72
2023/09/16 07:33:38;;;;;;;20.17;5.83;;;27.80;52.50;;;;;;5069320;28;20628;-71
2023/09/16 07:36:05;;;;;;;25.07;6.57;;;27.80;52.50;;;;;;5056030;28;20296;-72
2023/09/16 07:38:32;;;;;;;22.70;6.80;;;27.80;52.50;;;;;;5049538;28;20246;-73
2023/09/16 07:40:59;;;;;;;23.13;6.13;;;27.80;52.60;;;;;;5051614;28;20291;-72
2023/09/16 07:43:27;;;;;;;28.87;6.33;;;27.80;52.70;;;;;;5067163;28;20238;-72
2023/09/16 07:45:56;;;;;;;22.47;6.40;;;27.80;52.60;;;;;;5068982;28;20215;-72
2023/09/16 07:48:23;;;;;;;27.43;7.00;;;27.80;52.60;;;;;;5069393;28;20199;-72
2023/09/16 07:50:50;;;;;;;54.30;9.53;;;27.80;52.60;;;;;;5074221;28;20281;-72
2023/09/16 07:53:17;;;;;;;25.43;6.00;;;27.90;52.70;;;;;;5077480;28;20294;-72
2023/09/16 07:55:44;;;;;;;34.60;7.97;;;27.80;52.70;;;;;;5071850;28;20223;-72
2023/09/16 07:58:11;;;;;;;30.40;7.03;;;27.90;52.80;;;;;;5052598;28;20196;-72
2023/09/16 08:00:39;;;;;;;29.67;7.40;;;27.90;52.80;;;;;;5063625;28;20200;-72
2023/09/16 08:03:06;;;;;;;36.70;7.80;;;27.90;52.80;;;;;;5053071;28;20199;-72
2023/09/16 08:05:33;;;;;;;26.93;6.80;;;27.90;52.80;;;;;;5060216;28;20238;-74
2023/09/16 08:08:00;;;;;;;28.90;7.07;;;27.90;52.80;;;;;;5068500;28;20199;-73
2023/09/16 08:10:27;;;;;;;26.57;7.10;;;28.00;52.90;;;;;;5061941;28;20203;-73
2023/09/16 08:12:54;;;;;;;25.00;7.40;;;28.00;52.90;;;;;;5051303;28;20282;-74
2023/09/16 08:15:21;;;;;;;32.03;7.37;;;28.00;52.80;;;;;;5069339;28;20290;-74
2023/09/16 08:17:49;;;;;;;24.73;7.20;;;28.00;52.90;;;;;;5067860;28;20204;-73
2023/09/16 08:20:20;;;;;;;31.60;7.53;;;28.00;52.90;;;;;;5061420;28;20265;-73
2023/09/16 08:22:47;;;;;;;32.23;7.70;;;28.10;52.90;;;;;;5070963;28;20195;-73
2023/09/16 08:25:14;;;;;;;32.90;7.83;;;28.10;53.00;;;;;;5084163;28;20203;-72
2023/09/16 08:27:41;;;;;;;21.07;6.97;;;28.10;53.00;;;;;;5088816;28;20317;-75
2023/09/16 08:30:09;;;;;;;49.63;9.40;;;28.20;53.00;;;;;;5066191;28;20200;-73
2023/09/16 08:32:38;;;;;;;24.20;7.53;;;28.20;53.00;;;;;;5052157;28;20626;-72
2023/09/16 08:35:08;;;;;;;23.70;6.77;;;28.20;52.90;;;;;;5074939;28;20207;-74
2023/09/16 08:37:35;;;;;;;29.90;8.07;;;28.30;53.00;;;;;;5058980;28;20200;-72
2023/09/16 08:40:02;;;;;;;42.10;8.80;;;28.30;52.90;;;;;;5054025;28;20664;-72
2023/09/16 08:42:41;;;;;;;29.83;8.17;;;28.30;52.90;;;;;;5075723;28;20200;-73
2023/09/16 08:45:14;;;;;;;35.33;8.90;;;28.40;53.00;;;;;;5067245;28;20643;-71
2023/09/16 08:47:43;;;;;;;26.20;8.30;;;28.40;52.90;;;;;;5065905;28;20266;-71
2023/09/16 08:50:12;;;;;;;34.47;9.60;;;28.40;52.80;;;;;;5054527;28;20235;-71
2023/09/16 08:52:46;;;;;;;31.93;8.73;;;28.40;52.90;;;;;;5048396;28;20667;-71
2023/09/16 08:55:14;;;;;;;28.53;8.50;;;28.40;52.90;;;;;;5064561;28;20204;-73
2023/09/16 08:57:46;;;;;;;26.33;8.83;;;28.50;52.90;;;;;;5067905;28;20663;-72
2023/09/16 09:00:14;;;;;;;33.80;8.97;;;28.50;53.50;;;;;;5068617;28;20581;-72
2023/09/16 09:02:41;;;;;;;28.33;8.50;;;28.50;52.90;;;;;;5068597;28;20299;-75
2023/09/16 09:05:11;;;;;;;30.37;8.37;;;28.60;52.90;;;;;;5083191;28;20298;-71
2023/09/16 09:07:41;;;;;;;32.67;8.40;;;28.60;52.90;;;;;;5074529;28;20270;-76
2023/09/16 09:10:10;;;;;;;27.30;7.27;;;28.60;52.90;;;;;;5048200;28;20207;-74
2023/09/16 09:12:39;;;;;;;30.03;8.17;;;28.70;53.00;;;;;;5047633;28;20204;-73
2023/09/16 09:15:10;;;;;;;28.77;7.57;;;28.70;53.00;;;;;;5053225;28;20199;-76
2023/09/16 09:17:39;;;;;;;26.33;8.40;;;28.80;53.60;;;;;;5067986;28;20694;-72
2023/09/16 09:20:09;;;;;;;25.97;8.20;;;28.80;53.10;;;;;;5067969;28;20584;-73
2023/09/16 09:22:40;;;;;;;35.27;8.90;;;28.80;53.10;;;;;;5069443;28;20227;-73
2023/09/16 09:25:08;;;;;;;26.07;7.63;;;28.80;53.10;;;;;;5070756;28;20207;-71
2023/09/16 09:27:35;;;;;;;26.13;7.70;;;28.90;53.20;;;;;;5071116;28;20885;-73
2023/09/16 09:30:04;;;;;;;26.43;7.90;;;28.90;53.10;;;;;;5071474;28;20210;-75
2023/09/16 09:32:32;;;;;;;28.10;7.90;;;29.00;53.20;;;;;;5071510;28;20581;-74
2023/09/16 09:34:59;;;;;;;23.67;7.23;;;29.00;53.20;;;;;;5083822;28;20199;-73
2023/09/16 09:37:26;;;;;;;30.50;7.80;;;29.10;53.30;;;;;;5073263;28;20287;-75
2023/09/16 09:40:08;;;;;;;25.73;7.33;;;29.10;53.30;;;;;;5071661;28;20198;-75
2023/09/16 09:42:40;;;;;;;33.40;8.73;;;29.20;53.30;;;;;;5057006;28;20668;-73
2023/09/16 09:45:07;;;;;;;22.83;7.40;;;29.20;53.30;;;;;;5056848;28;20949;-75
2023/09/16 09:47:35;;;;;;;35.23;8.70;;;29.30;53.20;;;;;;5071068;28;20706;-74
2023/09/16 09:50:01;;;;;;;20.20;6.97;;;29.30;53.10;;;;;;5071263;28;20214;-71
2023/09/16 09:52:29;;;;;;;28.87;7.80;;;29.30;53.10;;;;;;5066221;28;20238;-74
2023/09/16 09:54:58;;;;;;;54.57;10.07;;;29.40;53.00;;;;;;5071827;28;20201;-75
2023/09/16 09:57:27;;;;;;;26.77;7.87;;;29.40;52.80;;;;;;5074307;28;20261;-74
2023/09/16 09:59:55;;;;;;;28.80;7.63;;;29.50;52.80;;;;;;5052924;28;20206;-72
2023/09/16 10:02:25;;;;;;;27.03;7.43;;;29.50;52.80;;;;;;5051344;28;20968;-72
2023/09/16 10:04:58;;;;;;;24.10;7.30;;;29.50;52.80;;;;;;5051261;28;20207;-73
2023/09/16 10:07:26;;;;;;;24.17;6.80;;;29.60;52.90;;;;;;5075059;28;20231;-72
2023/09/16 10:09:53;;;;;;;41.93;8.87;;;29.60;52.80;;;;;;5090898;28;20534;-72
2023/09/16 10:12:21;;;;;;;23.80;7.10;;;29.70;52.80;;;;;;5083545;28;20203;-72
2023/09/16 10:14:51;;;;;;;25.70;7.97;;;29.80;52.90;;;;;;5091013;28;20689;-72
2023/09/16 10:17:18;;;;;;;20.40;6.73;;;29.90;52.90;;;;;;5091063;28;20302;-72
2023/09/16 10:19:45;;;;;;;29.57;7.53;;;30.00;52.90;;;;;;5090406;28;20206;-72
2023/09/16 10:22:14;;;;;;;32.03;8.17;;;30.10;53.00;;;;;;5090896;28;20245;-71
2023/09/16 10:24:42;;;;;;;26.90;7.30;;;30.20;53.00;;;;;;5090568;28;20206;-71
2023/09/16 10:27:17;;;;;;;20.73;6.90;;;30.30;53.10;;;;;;5090587;28;20235;-72
2023/09/16 10:29:45;;;;;;;28.90;7.53;;;30.50;53.10;;;;;;5090609;28;20213;-73
2023/09/16 10:32:14;;;;;;;22.90;6.80;;;30.60;53.10;;;;;;5090805;28;20277;-76
2023/09/16 10:34:45;;;;;;;24.03;7.77;;;30.70;53.20;;;;;;5090389;28;20306;-76
2023/09/16 10:37:16;;;;;;;33.57;8.30;;;30.90;53.30;;;;;;5075841;28;20613;-74
2023/09/16 10:39:44;;;;;;;28.93;7.97;;;31.00;53.20;;;;;;5089757;28;20653;-74
2023/09/16 10:42:12;;;;;;;24.08;6.93;;;31.20;53.10;;;;;;5088110;28;20213;-77
2023/09/16 10:44:40;;;;;;;26.17;7.20;;;31.30;52.90;;;;;;5086707;28;20207;-75
2023/09/16 10:47:08;;;;;;;45.78;8.80;;;31.40;52.80;;;;;;5075495;28;20322;-78
2023/09/16 10:49:36;;;;;;;30.15;7.72;;;31.60;52.50;;;;;;5088796;28;20203;-79
2023/09/16 10:52:05;;;;;;;33.92;7.75;;;31.70;52.20;;;;;;5063832;28;20206;-77
2023/09/16 10:54:41;;;;;;;20.13;5.78;;;31.80;52.00;;;;;;5059233;28;20235;-77
2023/09/16 10:57:17;;;;;;;20.65;6.97;;;31.90;50.40;;;;;;5067501;28;20315;-79
2023/09/16 10:59:47;;;;;;;19.38;6.43;;;32.00;50.60;;;;;;5069866;28;20639;-76
2023/09/16 11:02:22;;;;;;;22.38;6.45;;;32.00;50.20;;;;;;5069950;28;20214;-77
2023/09/16 11:04:50;;;;;;;23.05;6.70;;;32.10;50.00;;;;;;5070200;28;20282;-76
2023/09/16 11:07:17;;;;;;;24.77;6.63;;;32.10;50.10;;;;;;5066806;28;20220;-75
2023/09/16 11:09:48;;;;;;;49.00;9.27;;;32.10;50.00;;;;;;5049649;28;20311;-76
2023/09/16 11:12:17;;;;;;;31.15;7.30;;;32.10;50.00;;;;;;5069526;28;20196;-76
2023/09/16 11:14:44;;;;;;;23.10;6.57;;;32.00;50.00;;;;;;5069532;28;20207;-74
2023/09/16 11:17:14;;;;;;;42.28;8.57;;;32.00;49.80;;;;;;5069669;28;20571;-76
2023/09/16 11:19:42;;;;;;;25.63;7.35;;;31.90;49.50;;;;;;5088784;28;20213;-75
2023/09/16 11:22:11;;;;;;;25.65;6.25;;;31.90;49.40;;;;;;5066658;28;20207;-75
2023/09/16 11:24:38;;;;;;;16.00;5.15;;;31.90;49.40;;;;;;5068059;28;20225;-76
2023/09/16 11:27:06;;;;;;;30.77;6.25;;;31.80;49.60;;;;;;5069536;28;20304;-75
2023/09/16 11:29:33;;;;;;;18.15;6.30;;;31.70;49.80;;;;;;5069693;28;21017;-76
2023/09/16 11:32:02;;;;;;;20.40;6.20;;;31.60;49.80;;;;;;5069228;28;20203;-75
2023/09/16 11:34:30;;;;;;;25.58;6.75;;;31.60;50.00;;;;;;5065873;28;20199;-76
2023/09/16 11:36:58;;;;;;;37.25;7.88;;;31.60;50.00;;;;;;5069004;28;20210;-75
2023/09/16 11:39:36;;;;;;;23.45;6.07;;;31.60;50.20;;;;;;5068340;28;20287;-75
2023/09/16 11:42:04;;;;;;;25.92;7.05;;;31.60;49.70;;;;;;5068907;28;20210;-77
2023/09/16 11:44:31;;;;;;;40.08;8.05;;;31.50;49.70;;;;;;5066397;28;20235;-76
2023/09/16 11:47:01;;;;;;;20.87;6.43;;;31.50;50.00;;;;;;5048739;28;20235;-74
2023/09/16 11:49:28;;;;;;;25.07;6.40;;;31.40;50.00;;;;;;5054680;28;20282;-75
2023/09/16 11:51:55;;;;;;;20.85;6.22;;;31.40;50.10;;;;;;5074395;28;20316;-73
2023/09/16 11:54:23;;;;;;;29.57;6.80;;;31.40;50.00;;;;;;5067899;28;20210;-73
2023/09/16 11:56:52;;;;;;;20.13;5.80;;;31.30;50.00;;;;;;5089055;28;20297;-74
2023/09/16 11:59:19;;;;;;;28.48;6.75;;;31.30;50.00;;;;;;5071862;28;20199;-74
2023/09/16 12:01:46;;;;;;;20.23;5.88;;;31.30;50.00;;;;;;5068387;28;20290;-72
2023/09/16 12:04:15;;;;;;;28.50;6.50;;;31.30;50.00;;;;;;5063168;28;20199;-75
2023/09/16 12:06:44;;;;;;;28.00;6.47;;;31.20;49.90;;;;;;5050001;28;20208;-72
2023/09/16 12:09:16;;;;;;;25.35;6.20;;;31.20;49.90;;;;;;5048441;28;20192;-76
2023/09/16 12:11:44;;;;;;;22.50;6.30;;;31.20;49.90;;;;;;5048666;28;20194;-76
2023/09/16 12:14:12;;;;;;;30.87;6.87;;;31.20;50.00;;;;;;5048865;28;21021;-78
2023/09/16 12:16:39;;;;;;;25.10;6.20;;;31.10;50.00;;;;;;5064802;28;20207;-73
2023/09/16 12:19:06;;;;;;;46.53;9.35;;;31.10;50.20;;;;;;5067214;28;20221;-72
2023/09/16 12:21:34;;;;;;;29.48;6.53;;;31.10;50.30;;;;;;5065792;28;20210;-71
2023/09/16 12:24:01;;;;;;;22.52;5.82;;;31.10;50.40;;;;;;5064609;28;20286;-74
2023/09/16 12:26:28;;;;;;;15.05;5.35;;;31.00;50.40;;;;;;5068366;28;20203;-76
2023/09/16 12:28:55;;;;;;;21.40;6.00;;;31.00;50.50;;;;;;5067050;28;20266;-76
2023/09/16 12:31:24;;;;;;;26.70;6.33;;;31.10;50.50;;;;;;5065639;28;20256;-74
2023/09/16 12:33:54;;;;;;;17.90;5.82;;;31.00;50.50;;;;;;5066585;28;20204;-76
2023/09/16 12:36:25;;;;;;;27.50;7.53;;;31.00;50.50;;;;;;5066862;28;20202;-75
2023/09/16 12:38:54;;;;;;;26.20;6.57;;;31.00;50.30;;;;;;5063062;28;20225;-75